createdAt,value
2019-03-06T00:00:44.267Z,94.70
2019-03-06T00:02:38.745Z,94.50
2019-03-06T00:04:31.203Z,94.90
2019-03-06T00:06:24.021Z,94.90
2019-03-06T00:08:16.779Z,94.80
2019-03-06T00:10:27.341Z,94.90
2019-03-06T00:12:20.503Z,95.20
2019-03-06T00:14:13.333Z,94.90
2019-03-06T00:16:06.528Z,94.80
2019-03-06T00:17:58.901Z,94.70
2019-03-06T00:19:51.756Z,94.90
2019-03-06T00:21:44.671Z,94.60
2019-03-06T00:23:37.636Z,94.60
2019-03-06T00:25:30.439Z,94.30
2019-03-06T00:27:23.204Z,94.30
2019-03-06T00:29:15.583Z,94.50
2019-03-06T00:31:08.401Z,94.60
2019-03-06T00:33:01.224Z,94.40
2019-03-06T00:34:55.512Z,94.50
2019-03-06T00:36:48.476Z,94.00
2019-03-06T00:38:41.084Z,94.10
2019-03-06T00:40:35.144Z,93.40
2019-03-06T00:42:27.640Z,93.30
2019-03-06T00:44:20.912Z,93.50
2019-03-06T00:46:13.816Z,93.40
2019-03-06T00:48:07.218Z,93.50
2019-03-06T00:50:00.030Z,93.90
2019-03-06T00:51:52.842Z,94.10
2019-03-06T00:53:46.014Z,94.10
2019-03-06T00:55:38.873Z,94.50
2019-03-06T00:57:31.794Z,95.00
2019-03-06T00:59:24.606Z,94.90
2019-03-06T01:01:16.960Z,94.90
2019-03-06T01:03:10.421Z,94.90
2019-03-06T01:05:04.528Z,94.90
2019-03-06T01:06:57.679Z,94.90
2019-03-06T01:08:50.784Z,94.80
2019-03-06T01:10:43.666Z,94.70
2019-03-06T01:12:36.911Z,94.50
2019-03-06T01:14:29.637Z,94.00
2019-03-06T01:16:24.249Z,94.40
2019-03-06T01:18:17.118Z,94.00
2019-03-06T01:20:14.368Z,94.10
2019-03-06T01:22:07.145Z,93.70
2019-03-06T01:24:00.384Z,93.30
2019-03-06T01:25:53.282Z,93.30
2019-03-06T01:27:45.656Z,93.10
2019-03-06T01:29:39.011Z,93.00
2019-03-06T01:31:31.805Z,92.40
2019-03-06T01:33:29.246Z,92.20
2019-03-06T01:35:32.620Z,92.40
2019-03-06T01:37:29.675Z,92.40
2019-03-06T01:39:24.300Z,92.40
2019-03-06T01:41:18.675Z,92.50
2019-03-06T01:43:13.787Z,92.40
2019-03-06T01:45:07.555Z,92.50
2019-03-06T01:47:00.482Z,92.30
2019-03-06T01:48:53.537Z,92.30
2019-03-06T01:50:46.368Z,91.90
2019-03-06T01:52:39.200Z,91.90
2019-03-06T01:54:32.071Z,91.90
2019-03-06T01:56:24.988Z,92.10
2019-03-06T01:58:17.229Z,92.00
2019-03-06T02:00:16.523Z,91.80
2019-03-06T02:02:09.390Z,92.10
2019-03-06T02:04:02.109Z,92.20
2019-03-06T02:05:56.232Z,91.80
2019-03-06T02:07:49.338Z,92.30
2019-03-06T02:09:41.912Z,91.90
2019-03-06T02:11:34.214Z,92.10
2019-03-06T02:13:27.045Z,92.30
2019-03-06T02:15:19.843Z,92.10
2019-03-06T02:17:12.264Z,92.40
2019-03-06T02:19:04.954Z,92.30
2019-03-06T02:20:57.360Z,92.00
2019-03-06T02:22:51.187Z,92.10
2019-03-06T02:24:43.958Z,92.20
2019-03-06T02:26:36.704Z,91.80
2019-03-06T02:28:29.639Z,91.70
2019-03-06T02:30:24.081Z,91.80
2019-03-06T02:32:17.265Z,92.20
2019-03-06T02:34:10.008Z,92.10
2019-03-06T02:36:02.793Z,92.10
2019-03-06T02:37:56.969Z,92.00
2019-03-06T02:39:50.134Z,92.10
2019-03-06T02:41:43.343Z,92.00
2019-03-06T02:43:35.760Z,92.10
2019-03-06T02:45:28.673Z,92.20
2019-03-06T02:47:21.234Z,92.30
2019-03-06T02:49:13.495Z,92.30
2019-03-06T02:51:06.276Z,92.00
2019-03-06T02:52:58.874Z,92.10
2019-03-06T02:54:51.963Z,92.10
2019-03-06T02:56:44.609Z,92.10
2019-03-06T02:58:45.098Z,92.10
2019-03-06T03:00:39.572Z,92.10
2019-03-06T03:02:34.205Z,91.90
2019-03-06T03:04:31.837Z,92.00
2019-03-06T03:06:26.189Z,91.80
2019-03-06T03:08:18.780Z,91.90
2019-03-06T03:10:12.540Z,91.90
2019-03-06T03:12:05.700Z,92.00
2019-03-06T03:13:58.546Z,91.90
2019-03-06T03:15:51.879Z,92.30
2019-03-06T03:17:45.168Z,91.80
2019-03-06T03:19:38.017Z,91.70
2019-03-06T03:21:31.484Z,91.60
2019-03-06T03:23:24.364Z,91.70
2019-03-06T03:25:16.682Z,91.80
2019-03-06T03:27:10.052Z,91.40
2019-03-06T03:29:03.336Z,91.60
2019-03-06T03:30:56.185Z,91.70
2019-03-06T03:32:49.726Z,91.60
2019-03-06T03:34:42.607Z,91.70
2019-03-06T03:36:35.986Z,91.70
2019-03-06T03:38:29.029Z,91.90
2019-03-06T03:40:21.592Z,92.10
2019-03-06T03:42:14.915Z,91.60
2019-03-06T03:44:08.570Z,91.70
2019-03-06T03:46:00.996Z,91.80
2019-03-06T03:47:53.945Z,91.60
2019-03-06T03:49:47.740Z,91.60
2019-03-06T03:51:42.111Z,91.80
2019-03-06T03:53:34.986Z,91.80
2019-03-06T03:55:28.753Z,91.50
2019-03-06T03:57:22.011Z,91.40
2019-03-06T03:59:15.189Z,91.50
2019-03-06T04:01:08.862Z,91.60
2019-03-06T04:03:01.577Z,91.80
2019-03-06T04:04:53.939Z,91.30
2019-03-06T04:06:46.756Z,91.20
2019-03-06T04:08:39.557Z,91.30
2019-03-06T04:10:31.939Z,91.20
2019-03-06T04:12:24.812Z,91.40
2019-03-06T04:14:17.717Z,91.40
2019-03-06T04:16:10.241Z,91.20
2019-03-06T04:18:02.998Z,91.10
2019-03-06T04:19:55.745Z,91.20
2019-03-06T04:21:48.673Z,91.10
2019-03-06T04:23:42.209Z,90.90
2019-03-06T04:25:35.121Z,90.70
2019-03-06T04:27:27.866Z,91.10
2019-03-06T04:29:20.169Z,91.20
2019-03-06T04:31:12.911Z,90.90
2019-03-06T04:33:05.795Z,90.90
2019-03-06T04:34:58.789Z,90.90
2019-03-06T04:36:51.642Z,91.40
2019-03-06T04:38:43.975Z,90.90
2019-03-06T04:40:37.716Z,90.90
2019-03-06T04:42:30.196Z,91.10
2019-03-06T04:44:23.016Z,91.20
2019-03-06T04:46:15.319Z,91.20
2019-03-06T04:48:07.932Z,91.00
2019-03-06T04:50:00.552Z,91.20
2019-03-06T04:51:53.097Z,91.00
2019-03-06T04:53:46.248Z,91.10
2019-03-06T04:55:39.210Z,91.20
2019-03-06T04:57:31.876Z,91.40
2019-03-06T04:59:24.784Z,91.30
2019-03-06T05:01:17.922Z,91.10
2019-03-06T05:03:10.577Z,91.50
2019-03-06T05:05:03.425Z,91.20
2019-03-06T05:06:55.831Z,91.30
2019-03-06T05:08:48.611Z,91.00
2019-03-06T05:10:41.432Z,91.20
2019-03-06T05:12:33.734Z,91.30
2019-03-06T05:14:26.345Z,91.30
2019-03-06T05:16:19.165Z,91.20
2019-03-06T05:18:15.852Z,91.10
2019-03-06T05:20:09.216Z,91.20
2019-03-06T05:22:02.473Z,91.30
2019-03-06T05:23:55.404Z,91.40
2019-03-06T05:25:48.235Z,91.40
2019-03-06T05:27:41.350Z,91.30
2019-03-06T05:29:34.555Z,91.30
2019-03-06T05:31:27.376Z,91.40
2019-03-06T05:33:20.173Z,91.30
2019-03-06T05:35:20.632Z,91.40
2019-03-06T05:37:44.169Z,91.60
2019-03-06T05:39:37.350Z,91.50
2019-03-06T05:41:30.633Z,91.30
2019-03-06T05:43:23.493Z,91.30
2019-03-06T05:45:15.928Z,91.30
2019-03-06T05:47:09.038Z,91.20
2019-03-06T05:49:01.981Z,91.50
2019-03-06T05:50:55.026Z,91.40
2019-03-06T05:52:47.718Z,91.30
2019-03-06T05:54:39.931Z,91.30
2019-03-06T05:56:32.590Z,91.10
2019-03-06T05:58:25.396Z,91.10
2019-03-06T06:00:22.739Z,90.90
2019-03-06T06:02:15.456Z,90.80
2019-03-06T06:04:07.797Z,91.00
2019-03-06T06:06:00.807Z,90.90
2019-03-06T06:07:54.003Z,90.80
2019-03-06T06:09:46.824Z,90.50
2019-03-06T06:11:39.904Z,90.40
2019-03-06T06:13:33.239Z,90.40
2019-03-06T06:15:26.499Z,90.50
2019-03-06T06:17:19.596Z,90.40
2019-03-06T06:19:12.460Z,90.40
2019-03-06T06:21:23.135Z,90.30
2019-03-06T06:23:34.110Z,90.40
2019-03-06T06:25:46.392Z,90.30
2019-03-06T06:27:39.224Z,90.30
2019-03-06T06:29:32.175Z,90.10
2019-03-06T06:31:25.799Z,90.20
2019-03-06T06:33:19.125Z,90.10
2019-03-06T06:35:12.671Z,90.00
2019-03-06T06:37:06.055Z,90.00
2019-03-06T06:38:59.975Z,90.30
2019-03-06T06:40:52.891Z,90.00
2019-03-06T06:42:45.656Z,89.60
2019-03-06T06:44:38.799Z,89.50
2019-03-06T06:46:31.681Z,89.80
2019-03-06T06:48:27.961Z,89.60
2019-03-06T06:50:20.612Z,89.60
2019-03-06T06:52:17.644Z,89.60
2019-03-06T06:54:13.620Z,89.40
2019-03-06T06:56:31.096Z,89.20
2019-03-06T06:58:42.724Z,88.90
2019-03-06T07:01:10.347Z,89.00
2019-03-06T07:03:17.258Z,89.10
2019-03-06T07:05:24.961Z,88.70
2019-03-06T07:07:36.013Z,89.20
2019-03-06T07:09:45.837Z,88.10
2019-03-06T07:11:43.196Z,87.50
2019-03-06T07:13:46.838Z,87.40
2019-03-06T07:15:57.566Z,87.40
2019-03-06T07:17:56.685Z,87.10
2019-03-06T07:19:51.420Z,86.60
2019-03-06T07:22:02.768Z,85.60
2019-03-06T07:24:12.699Z,84.80
2019-03-06T07:26:22.300Z,84.70
2019-03-06T07:28:17.084Z,83.70
2019-03-06T07:30:14.016Z,83.60
2019-03-06T07:32:08.509Z,82.90
2019-03-06T07:34:05.850Z,82.90
2019-03-06T07:36:00.325Z,82.30
2019-03-06T07:37:55.306Z,82.10
2019-03-06T07:39:50.832Z,81.20
2019-03-06T07:41:56.008Z,81.60
2019-03-06T07:43:53.404Z,80.90
2019-03-06T07:45:48.268Z,80.10
2019-03-06T07:47:42.935Z,80.60
2019-03-06T07:49:45.109Z,79.70
2019-03-06T07:51:37.686Z,79.00
2019-03-06T07:53:53.583Z,78.90
2019-03-06T07:55:51.976Z,77.70
2019-03-06T07:58:21.573Z,77.90
2019-03-06T08:00:15.719Z,77.50
2019-03-06T08:02:24.546Z,77.50
2019-03-06T08:04:17.525Z,75.00
2019-03-06T08:06:10.732Z,74.60
2019-03-06T08:08:04.196Z,74.50
2019-03-06T08:09:57.165Z,74.00
2019-03-06T08:12:00.792Z,75.00
2019-03-06T08:13:55.797Z,74.70
2019-03-06T08:15:50.168Z,74.20
2019-03-06T08:17:51.231Z,73.60
2019-03-06T08:20:02.363Z,73.00
2019-03-06T08:22:00.167Z,77.60
2019-03-06T08:24:11.155Z,70.50
2019-03-06T08:26:05.197Z,70.30
2019-03-06T08:27:58.563Z,71.30
2019-03-06T08:29:51.451Z,74.20
2019-03-06T08:31:45.500Z,71.00
2019-03-06T08:33:38.312Z,70.70
2019-03-06T08:35:31.133Z,71.00
2019-03-06T08:37:24.302Z,70.90
2019-03-06T08:39:18.926Z,69.30
2019-03-06T08:41:11.927Z,70.10
2019-03-06T08:43:05.368Z,69.60
2019-03-06T08:44:57.817Z,69.20
2019-03-06T08:46:52.228Z,68.60
2019-03-06T08:48:49.380Z,69.30
2019-03-06T08:50:52.874Z,68.80
2019-03-06T08:52:47.490Z,68.20
2019-03-06T08:54:42.156Z,68.20
2019-03-06T08:56:42.569Z,67.90
2019-03-06T08:58:37.096Z,67.90
2019-03-06T09:00:34.787Z,66.80
2019-03-06T09:02:32.534Z,66.70
2019-03-06T09:04:27.103Z,65.80
2019-03-06T09:06:27.734Z,63.50
2019-03-06T09:08:34.723Z,63.80
2019-03-06T09:10:37.992Z,62.30
2019-03-06T09:12:36.467Z,61.00
2019-03-06T09:14:31.227Z,60.80
2019-03-06T09:16:31.397Z,60.80
2019-03-06T09:18:41.126Z,59.60
2019-03-06T09:20:40.027Z,59.80
2019-03-06T09:22:42.229Z,59.60
2019-03-06T09:24:42.656Z,59.40
2019-03-06T09:26:53.498Z,60.00
2019-03-06T09:29:00.658Z,58.40
2019-03-06T09:30:50.378Z,58.40
2019-03-06T09:33:03.534Z,58.40
2019-03-06T09:35:14.622Z,57.90
2019-03-06T09:37:10.644Z,57.90
2019-03-06T09:39:15.696Z,57.30
2019-03-06T09:41:16.140Z,57.00
2019-03-06T09:43:11.380Z,56.80
2019-03-06T09:45:08.367Z,56.50
2019-03-06T09:47:06.455Z,55.30
2019-03-06T09:49:01.149Z,54.40
2019-03-06T09:51:11.904Z,55.10
2019-03-06T09:53:06.319Z,53.90
2019-03-06T09:55:07.030Z,53.40
2019-03-06T09:57:10.705Z,54.30
2019-03-06T09:59:07.989Z,54.40
2019-03-06T10:01:08.770Z,52.50
2019-03-06T10:03:06.516Z,53.00
2019-03-06T10:05:01.360Z,52.60
2019-03-06T10:07:08.179Z,52.20
2019-03-06T10:09:02.958Z,51.60
2019-03-06T10:10:58.769Z,51.70
2019-03-06T10:12:53.325Z,50.30
2019-03-06T10:14:56.994Z,49.30
2019-03-06T10:16:51.843Z,48.40
2019-03-06T10:18:46.832Z,47.60
2019-03-06T10:20:39.860Z,47.20
2019-03-06T10:22:32.301Z,47.70
2019-03-06T10:24:25.517Z,48.10
2019-03-06T10:26:18.641Z,47.80
2019-03-06T10:28:12.005Z,47.20
2019-03-06T10:30:08.931Z,47.30
2019-03-06T10:32:01.455Z,47.60
2019-03-06T10:33:56.390Z,47.80
2019-03-06T10:35:49.795Z,48.20
2019-03-06T10:37:42.480Z,48.30
2019-03-06T10:39:34.981Z,48.00
2019-03-06T10:41:28.148Z,48.10
2019-03-06T10:43:21.432Z,47.80
2019-03-06T10:45:17.917Z,48.00
2019-03-06T10:47:11.537Z,48.40
2019-03-06T10:49:03.909Z,48.80
2019-03-06T10:50:56.600Z,50.20
2019-03-06T10:52:49.137Z,49.30
2019-03-06T10:54:45.014Z,48.50
2019-03-06T10:56:36.298Z,48.90
2019-03-06T10:58:29.627Z,48.40
2019-03-06T11:00:32.187Z,48.40
2019-03-06T11:02:25.595Z,48.00
2019-03-06T11:04:25.296Z,48.30
2019-03-06T11:06:17.962Z,48.00
2019-03-06T11:08:10.833Z,48.20
2019-03-06T11:10:06.153Z,47.70
2019-03-06T11:11:59.233Z,47.10
2019-03-06T11:13:53.737Z,47.80
2019-03-06T11:15:55.176Z,48.00
2019-03-06T11:17:40.672Z,47.30
2019-03-06T11:19:33.904Z,46.70
2019-03-06T11:21:26.719Z,46.80
2019-03-06T11:23:19.380Z,46.60
2019-03-06T11:25:15.707Z,46.70
2019-03-06T11:27:08.640Z,48.10
2019-03-06T11:29:01.105Z,47.40
2019-03-06T11:30:56.050Z,47.80
2019-03-06T11:32:54.494Z,47.70
2019-03-06T11:34:43.145Z,48.40
2019-03-06T11:36:35.944Z,48.20
2019-03-06T11:38:29.389Z,48.20
2019-03-06T11:40:22.547Z,48.20
2019-03-06T11:42:15.364Z,49.40
2019-03-06T11:44:08.549Z,48.10
2019-03-06T11:46:00.955Z,48.00
2019-03-06T11:47:54.289Z,49.00
2019-03-06T11:49:48.352Z,49.60
2019-03-06T11:51:41.124Z,49.30
2019-03-06T11:53:34.499Z,48.40
2019-03-06T11:55:27.704Z,47.60
2019-03-06T11:57:20.859Z,47.60
2019-03-06T11:59:14.781Z,47.90
2019-03-06T12:01:09.004Z,47.90
2019-03-06T12:03:02.554Z,47.20
2019-03-06T12:04:55.812Z,48.50
2019-03-06T12:06:48.816Z,48.00
2019-03-06T12:08:45.916Z,47.90
2019-03-06T12:10:37.775Z,48.40
2019-03-06T12:12:30.512Z,48.40
2019-03-06T12:14:24.013Z,48.40
2019-03-06T12:16:19.045Z,47.60
2019-03-06T12:18:12.277Z,48.50
2019-03-06T12:20:09.543Z,47.60
2019-03-06T12:22:02.877Z,47.00
2019-03-06T12:23:55.135Z,47.00
2019-03-06T12:25:47.940Z,48.00
2019-03-06T12:27:40.278Z,47.70
2019-03-06T12:29:33.104Z,47.60
2019-03-06T12:31:25.724Z,47.20
2019-03-06T12:33:21.152Z,47.30
2019-03-06T12:35:16.051Z,47.40
2019-03-06T12:37:08.826Z,47.30
2019-03-06T12:39:01.687Z,48.00
2019-03-06T12:40:56.120Z,48.20
2019-03-06T12:42:48.945Z,48.90
2019-03-06T12:44:42.368Z,48.30
2019-03-06T12:46:34.931Z,48.60
2019-03-06T12:48:27.765Z,48.40
2019-03-06T12:50:33.132Z,48.60
2019-03-06T12:52:26.129Z,49.10
2019-03-06T12:54:19.293Z,49.50
2019-03-06T12:56:11.742Z,48.80
2019-03-06T12:58:06.464Z,48.20
2019-03-06T13:00:00.933Z,48.00
2019-03-06T13:01:55.417Z,48.40
2019-03-06T13:03:48.361Z,48.50
2019-03-06T13:05:40.845Z,48.70
2019-03-06T13:07:34.181Z,49.20
2019-03-06T13:09:27.429Z,49.70
2019-03-06T13:11:20.729Z,50.10
2019-03-06T13:13:13.592Z,50.10
2019-03-06T13:15:12.770Z,49.70
2019-03-06T13:17:05.806Z,51.50
2019-03-06T13:18:59.097Z,50.50
2019-03-06T13:20:52.044Z,50.10
2019-03-06T13:22:44.940Z,49.30
2019-03-06T13:24:38.001Z,49.20
2019-03-06T13:26:30.703Z,49.30
2019-03-06T13:28:24.915Z,49.50
2019-03-06T13:30:18.811Z,47.70
2019-03-06T13:32:12.231Z,47.40
2019-03-06T13:34:06.844Z,47.80
2019-03-06T13:35:59.618Z,47.00
2019-03-06T13:37:53.210Z,46.60
2019-03-06T13:39:45.920Z,46.80
2019-03-06T13:41:39.364Z,45.60
2019-03-06T13:43:32.762Z,45.90
2019-03-06T13:45:26.212Z,46.20
2019-03-06T13:47:19.384Z,46.00
2019-03-06T13:49:12.721Z,46.40
2019-03-06T13:51:05.361Z,46.80
2019-03-06T13:52:58.324Z,45.60
2019-03-06T13:54:50.953Z,45.60
2019-03-06T13:56:44.234Z,46.10
2019-03-06T13:58:36.712Z,46.30
2019-03-06T14:00:29.344Z,47.00
2019-03-06T14:02:21.707Z,47.90
2019-03-06T14:04:15.283Z,49.00
2019-03-06T14:06:08.705Z,48.20
2019-03-06T14:08:01.492Z,48.40
2019-03-06T14:09:53.941Z,47.90
2019-03-06T14:11:46.715Z,46.80
2019-03-06T14:13:39.949Z,46.90
2019-03-06T14:15:33.323Z,46.90
2019-03-06T14:17:26.538Z,47.30
2019-03-06T14:19:19.185Z,47.30
2019-03-06T14:21:12.278Z,46.30
2019-03-06T14:23:05.273Z,46.70
2019-03-06T14:24:58.251Z,46.90
2019-03-06T14:26:50.839Z,47.40
2019-03-06T14:28:43.774Z,47.20
2019-03-06T14:30:39.317Z,46.70
2019-03-06T14:32:32.195Z,46.90
2019-03-06T14:34:25.207Z,47.60
2019-03-06T14:36:18.468Z,47.80
2019-03-06T14:38:12.772Z,47.80
2019-03-06T14:40:17.892Z,48.50
2019-03-06T14:42:11.196Z,48.60
2019-03-06T14:44:04.276Z,49.20
2019-03-06T14:45:57.575Z,49.20
2019-03-06T14:47:50.834Z,49.00
2019-03-06T14:49:43.352Z,49.30
2019-03-06T14:51:36.197Z,49.00
2019-03-06T14:53:28.736Z,48.80
2019-03-06T14:55:21.814Z,47.90
2019-03-06T14:57:14.475Z,49.20
2019-03-06T14:59:07.658Z,48.10
2019-03-06T15:01:00.486Z,48.00
2019-03-06T15:02:52.939Z,48.00
2019-03-06T15:04:46.116Z,48.20
2019-03-06T15:06:39.218Z,48.60
2019-03-06T15:08:32.057Z,49.10
2019-03-06T15:10:24.937Z,49.30
2019-03-06T15:12:18.022Z,49.80
2019-03-06T15:14:10.428Z,49.60
2019-03-06T15:16:03.286Z,49.60
2019-03-06T15:17:56.058Z,49.70
2019-03-06T15:19:50.689Z,50.30
2019-03-06T15:21:43.848Z,50.60
2019-03-06T15:23:36.745Z,50.80
2019-03-06T15:25:30.570Z,51.30
2019-03-06T15:27:24.148Z,52.60
2019-03-06T15:29:18.598Z,52.20
2019-03-06T15:31:11.495Z,52.40
2019-03-06T15:33:04.063Z,52.90
2019-03-06T15:34:56.464Z,53.80
2019-03-06T15:36:49.334Z,53.20
2019-03-06T15:38:42.436Z,53.40
2019-03-06T15:40:36.557Z,53.30
2019-03-06T15:42:29.141Z,53.90
2019-03-06T15:44:21.899Z,53.90
2019-03-06T15:46:14.382Z,54.30
2019-03-06T15:48:07.283Z,54.50
2019-03-06T15:50:00.434Z,54.50
2019-03-06T15:51:55.104Z,54.90
2019-03-06T15:53:47.644Z,55.20
2019-03-06T15:55:40.540Z,55.40
2019-03-06T15:57:33.303Z,55.30
2019-03-06T15:59:26.325Z,56.10
2019-03-06T16:01:19.296Z,56.20
2019-03-06T16:03:13.121Z,56.10
2019-03-06T16:05:09.284Z,56.20
2019-03-06T16:07:02.653Z,56.80
2019-03-06T16:08:54.905Z,57.00
2019-03-06T16:10:47.480Z,57.40
2019-03-06T16:12:40.799Z,57.40
2019-03-06T16:14:34.079Z,57.80
2019-03-06T16:16:26.993Z,57.80
2019-03-06T16:18:20.015Z,58.20
2019-03-06T16:20:20.663Z,58.40
2019-03-06T16:22:13.590Z,58.80
2019-03-06T16:24:06.597Z,59.30
2019-03-06T16:25:59.565Z,58.90
2019-03-06T16:27:52.416Z,59.10
2019-03-06T16:29:44.936Z,59.40
2019-03-06T16:31:37.689Z,59.60
2019-03-06T16:33:30.053Z,59.60
2019-03-06T16:35:23.324Z,59.40
2019-03-06T16:37:16.289Z,59.70
2019-03-06T16:39:09.185Z,60.10
2019-03-06T16:41:03.543Z,60.30
2019-03-06T16:42:56.530Z,60.10
2019-03-06T16:44:49.233Z,60.40
2019-03-06T16:46:41.996Z,60.60
2019-03-06T16:48:34.875Z,60.80
2019-03-06T16:50:27.372Z,61.10
2019-03-06T16:52:20.629Z,61.30
2019-03-06T16:54:13.912Z,61.30
2019-03-06T16:56:06.328Z,61.60
2019-03-06T16:57:59.085Z,62.00
2019-03-06T16:59:52.350Z,62.10
2019-03-06T17:01:45.600Z,62.10
2019-03-06T17:03:38.537Z,62.50
2019-03-06T17:05:31.568Z,63.10
2019-03-06T17:07:24.292Z,63.10
2019-03-06T17:09:17.554Z,62.90
2019-03-06T17:11:11.153Z,63.10
2019-03-06T17:13:04.413Z,62.90
2019-03-06T17:14:57.768Z,62.80
2019-03-06T17:16:51.059Z,62.60
2019-03-06T17:18:45.450Z,62.70
2019-03-06T17:20:37.910Z,62.80
2019-03-06T17:22:30.820Z,63.20
2019-03-06T17:24:23.504Z,63.30
2019-03-06T17:26:17.277Z,63.50
2019-03-06T17:28:09.892Z,63.90
2019-03-06T17:30:03.078Z,63.40
2019-03-06T17:31:56.136Z,63.30
2019-03-06T17:33:50.470Z,63.80
2019-03-06T17:35:43.815Z,63.60
2019-03-06T17:37:35.904Z,63.60
2019-03-06T17:39:28.460Z,63.60
2019-03-06T17:41:21.833Z,63.70
2019-03-06T17:43:14.580Z,64.10
2019-03-06T17:45:09.149Z,64.30
2019-03-06T17:47:02.425Z,63.80
2019-03-06T17:48:55.316Z,63.50
2019-03-06T17:50:48.633Z,63.80
2019-03-06T17:52:41.457Z,64.60
2019-03-06T17:54:34.494Z,64.40
2019-03-06T17:56:27.293Z,64.40
2019-03-06T17:58:20.160Z,64.50
2019-03-06T18:00:36.553Z,64.60
2019-03-06T18:02:29.207Z,65.00
2019-03-06T18:04:22.070Z,65.30
2019-03-06T18:06:15.076Z,65.90
2019-03-06T18:08:07.939Z,65.50
2019-03-06T18:10:00.579Z,65.50
2019-03-06T18:11:53.020Z,65.50
2019-03-06T18:13:45.807Z,65.40
2019-03-06T18:15:38.332Z,65.60
2019-03-06T18:17:32.102Z,66.00
2019-03-06T18:19:26.244Z,66.00
2019-03-06T18:21:19.707Z,66.20
2019-03-06T18:23:13.609Z,66.40
2019-03-06T18:25:10.038Z,66.30
2019-03-06T18:27:03.489Z,66.40
2019-03-06T18:28:56.203Z,66.20
2019-03-06T18:30:48.985Z,66.30
2019-03-06T18:32:41.678Z,66.40
2019-03-06T18:34:36.277Z,66.60
2019-03-06T18:36:29.252Z,66.70
2019-03-06T18:38:22.494Z,67.20
2019-03-06T18:40:24.346Z,67.10
2019-03-06T18:42:17.863Z,67.20
2019-03-06T18:44:11.177Z,67.20
2019-03-06T18:46:04.530Z,67.60
2019-03-06T18:47:57.138Z,67.60
2019-03-06T18:49:49.626Z,67.90
2019-03-06T18:51:42.309Z,68.00
2019-03-06T18:53:35.317Z,68.10
2019-03-06T18:55:28.455Z,68.40
2019-03-06T18:57:21.950Z,68.30
2019-03-06T18:59:15.356Z,69.30
2019-03-06T19:01:09.591Z,68.60
2019-03-06T19:03:03.650Z,68.70
2019-03-06T19:04:57.184Z,68.70
2019-03-06T19:06:50.669Z,68.80
2019-03-06T19:08:44.601Z,68.70
2019-03-06T19:10:38.613Z,68.10
2019-03-06T19:12:32.552Z,68.20
2019-03-06T19:14:26.718Z,68.50
2019-03-06T19:16:21.102Z,69.00
2019-03-06T19:18:15.497Z,69.00
2019-03-06T19:20:09.974Z,69.10
2019-03-06T19:22:04.890Z,69.10
2019-03-06T19:23:59.201Z,69.10
2019-03-06T19:25:53.204Z,69.00
2019-03-06T19:27:47.244Z,69.30
2019-03-06T19:29:42.095Z,68.90
2019-03-06T19:31:18.663Z,68.60
2019-03-06T19:32:55.057Z,68.20
2019-03-06T19:34:31.238Z,67.80
2019-03-06T19:36:07.287Z,67.80
2019-03-06T19:37:43.814Z,68.00
2019-03-06T19:39:22.408Z,67.50
2019-03-06T19:40:58.677Z,66.50
2019-03-06T19:42:34.347Z,67.10
2019-03-06T19:44:10.244Z,66.50
2019-03-06T19:46:04.933Z,66.40
2019-03-06T19:48:01.077Z,66.50
2019-03-06T19:49:55.714Z,66.20
2019-03-06T19:51:51.794Z,65.90
2019-03-06T19:53:48.290Z,65.50
2019-03-06T19:55:45.628Z,66.00
2019-03-06T19:57:51.819Z,65.40
2019-03-06T19:59:46.735Z,64.70
2019-03-06T20:01:42.409Z,64.10
2019-03-06T20:03:37.926Z,63.60
2019-03-06T20:05:42.139Z,64.60
2019-03-06T20:07:37.053Z,63.60
2019-03-06T20:09:31.750Z,63.30
2019-03-06T20:11:26.452Z,63.10
2019-03-06T20:13:21.805Z,62.10
2019-03-06T20:15:20.277Z,60.70
2019-03-06T20:17:14.585Z,60.20
2019-03-06T20:19:09.408Z,61.10
2019-03-06T20:20:56.672Z,60.00
2019-03-06T20:22:33.149Z,60.60
2019-03-06T20:24:10.801Z,60.30
2019-03-06T20:25:47.383Z,60.60
2019-03-06T20:27:24.139Z,60.20
2019-03-06T20:29:01.587Z,59.90
2019-03-06T20:30:38.416Z,59.60
2019-03-06T20:32:14.682Z,59.10
2019-03-06T20:33:51.166Z,58.30
2019-03-06T20:35:27.329Z,57.80
2019-03-06T20:37:03.805Z,57.10
2019-03-06T20:38:40.464Z,56.90
2019-03-06T20:40:17.689Z,56.70
2019-03-06T20:41:53.651Z,56.00
2019-03-06T20:43:29.423Z,55.40
2019-03-06T20:45:07.944Z,54.90
2019-03-06T20:46:44.923Z,54.10
2019-03-06T20:48:21.540Z,54.10
2019-03-06T20:50:40.348Z,52.80
2019-03-06T20:52:36.740Z,52.90
2019-03-06T20:54:30.804Z,52.10
2019-03-06T20:56:24.948Z,51.50
2019-03-06T20:58:20.067Z,51.80
2019-03-06T21:00:23.189Z,50.80
2019-03-06T21:02:18.312Z,50.50
2019-03-06T21:04:15.022Z,49.70
2019-03-06T21:06:10.095Z,49.70
2019-03-06T21:08:06.374Z,49.70
2019-03-06T21:10:02.402Z,49.10
2019-03-06T21:11:58.536Z,49.10
2019-03-06T21:13:53.879Z,48.50
2019-03-06T21:15:48.551Z,48.60
2019-03-06T21:17:43.029Z,48.40
2019-03-06T21:19:38.464Z,48.80
2019-03-06T21:21:33.167Z,48.40
2019-03-06T21:23:29.413Z,49.90
2019-03-06T21:25:23.627Z,50.30
2019-03-06T21:27:18.454Z,49.70
2019-03-06T21:29:13.105Z,48.70
2019-03-06T21:31:07.996Z,48.60
2019-03-06T21:33:02.927Z,48.10
2019-03-06T21:34:57.405Z,48.30
2019-03-06T21:36:51.782Z,48.10
2019-03-06T21:38:46.972Z,48.30
2019-03-06T21:40:41.594Z,48.10
2019-03-06T21:42:36.155Z,47.60
2019-03-06T21:44:30.551Z,46.80
2019-03-06T21:46:24.941Z,47.00
2019-03-06T21:48:19.251Z,46.60
2019-03-06T21:50:17.871Z,46.40
2019-03-06T21:52:12.303Z,46.90
2019-03-06T21:54:06.708Z,46.00
2019-03-06T21:56:00.630Z,45.80
2019-03-06T21:57:54.338Z,45.60
2019-03-06T21:59:48.455Z,45.70
2019-03-06T22:01:42.435Z,44.40
2019-03-06T22:03:36.168Z,43.60
2019-03-06T22:05:29.807Z,43.80
2019-03-06T22:07:23.301Z,43.60
2019-03-06T22:09:15.997Z,43.30
2019-03-06T22:11:09.330Z,43.30
2019-03-06T22:13:02.449Z,43.20
2019-03-06T22:14:55.757Z,43.50
2019-03-06T22:16:48.909Z,43.20
2019-03-06T22:18:41.533Z,43.10
2019-03-06T22:20:33.975Z,43.50
2019-03-06T22:22:26.686Z,42.60
2019-03-06T22:24:19.636Z,42.60
2019-03-06T22:26:12.240Z,42.50
2019-03-06T22:28:06.491Z,42.60
2019-03-06T22:29:58.968Z,43.40
2019-03-06T22:31:51.836Z,42.60
2019-03-06T22:33:46.172Z,42.60
2019-03-06T22:35:38.620Z,42.80
2019-03-06T22:37:31.384Z,42.70
2019-03-06T22:39:24.364Z,42.70
2019-03-06T22:41:16.975Z,42.80
2019-03-06T22:43:09.576Z,43.10
2019-03-06T22:45:02.520Z,43.00
2019-03-06T22:46:56.759Z,43.10
2019-03-06T22:48:44.429Z,43.10
2019-03-06T22:50:37.415Z,43.20
2019-03-06T22:52:30.276Z,43.60
2019-03-06T22:54:22.727Z,43.80
2019-03-06T22:56:15.764Z,43.80
2019-03-06T22:58:08.972Z,43.70
2019-03-06T23:00:02.236Z,43.50
2019-03-06T23:01:56.718Z,43.40
2019-03-06T23:03:50.386Z,44.10
2019-03-06T23:05:43.573Z,44.60
2019-03-06T23:07:36.335Z,44.40
2019-03-06T23:09:29.171Z,44.60
2019-03-06T23:11:21.589Z,44.50
2019-03-06T23:13:14.308Z,45.20
2019-03-06T23:15:08.685Z,45.70
2019-03-06T23:17:01.882Z,45.40
2019-03-06T23:18:54.811Z,45.00
2019-03-06T23:20:48.140Z,44.80
2019-03-06T23:22:40.743Z,45.10
2019-03-06T23:24:33.704Z,45.60
2019-03-06T23:26:27.113Z,45.80
2019-03-06T23:28:19.716Z,45.70
2019-03-06T23:30:14.378Z,45.80
2019-03-06T23:32:07.207Z,45.80
2019-03-06T23:34:02.258Z,46.10
2019-03-06T23:35:55.291Z,45.90
2019-03-06T23:37:48.018Z,45.40
2019-03-06T23:39:40.688Z,45.70
2019-03-06T23:41:33.798Z,46.00
2019-03-06T23:43:26.858Z,45.90
2019-03-06T23:45:19.550Z,45.90
2019-03-06T23:47:12.492Z,45.80
2019-03-06T23:49:05.717Z,45.70
2019-03-06T23:51:00.461Z,46.50
2019-03-06T23:52:55.248Z,45.90
2019-03-06T23:54:49.241Z,45.80
2019-03-06T23:56:41.607Z,46.00
2019-03-06T23:58:34.503Z,46.10
